D/T METAR WX W/DIR W/SPE G/SPE TEMP DEWP
6/06/20 11:50 EGYM 061050Z AUTO 23022KT 9999 SCT014/// BKN021/// 11/09 Q0993 RERA SW (230°) 25.3mph 11°C 9°C
6/06/20 10:50 EGYM 060950Z AUTO 23016KT 9999 -RA BKN023/// 09/07 Q0994 -RA SW (230°) 18.4mph 9°C 7°C
6/06/20 09:50 EGYM 060850Z AUTO 23017KT 8000 RA BKN027/// BKN035/// 08/06 Q0993 RA SW (230°) 19.6mph 8°C 6°C
6/06/20 08:50 EGYM 060750Z AUTO 23016KT 9999 -RA SCT028/// BKN042/// 08/06 Q0993 -RA SW (230°) 18.4mph 8°C 6°C
6/06/20 07:50 EGYM 060650Z AUTO 24018KT 9000 RA BKN027/// 07/05 Q0994 RA WSW (240°) 20.7mph 7°C 5°C
6/06/20 06:50 EGYM 060550Z AUTO 24018G28KT 9999 OVC060/// 08/04 Q0993 RERA WSW (240°) 20.7mph 32.2mph 8°C 4°C
6/06/20 05:50 EGYM 060450Z AUTO 23017KT 9999 OVC070/// 07/03 Q0994 SW (230°) 19.6mph 7°C 3°C
6/06/20 04:50 EGYM 060350Z AUTO 23014KT 9999 BKN060/// 06/03 Q0994 SW (230°) 16.1mph 6°C 3°C
6/06/20 03:50 EGYM 060250Z AUTO 24014KT 9999 NCD 06/03 Q0994 WSW (240°) 16.1mph 6°C 3°C
6/06/20 02:50 EGYM 060150Z AUTO 24014KT 9999 NCD 07/03 Q0995 WSW (240°) 16.1mph 7°C 3°C
6/06/20 01:50 EGYM 060050Z AUTO 25014KT 9999 NCD 07/03 Q0995 WSW (250°) 16.1mph 7°C 3°C
6/06/20 00:50 EGYM 052350Z AUTO 25012KT 9999 NCD 07/03 Q0995 WSW (250°) 13.8mph 7°C 3°C
5/06/20 23:50 EGYM 052250Z AUTO 26011KT 9999 NCD 08/03 Q0995 W (260°) 12.7mph 8°C 3°C
5/06/20 22:50 EGYM 052150Z AUTO 26014KT 9999 NCD 08/03 Q0995 W (260°) 16.1mph 8°C 3°C
5/06/20 21:50 EGYM 052050Z AUTO 26012KT 9999 FEW050/// 09/04 Q0995 W (260°) 13.8mph 9°C 4°C
5/06/20 20:50 EGYM 051950Z AUTO 22008KT 9999 BKN050/// 09/06 Q0995 SW (220°) 9.2mph 9°C 6°C
5/06/20 19:50 EGYM 051850Z AUTO 23008KT 9999 OVC060/// 10/07 Q0995 RERA SW (230°) 9.2mph 10°C 7°C
5/06/20 18:50 EGYM 051750Z AUTO 27006KT 9999 BKN050/// 09/06 Q0995 RERA W (270°) 6.9mph 9°C 6°C
5/06/20 17:50 EGYM 051650Z AUTO 33007KT 9999 -RA BKN050/// 10/06 Q0995 -RA NNW (330°) 8.1mph 10°C 6°C
5/06/20 16:50 EGYM 051550Z AUTO 30022G36KT 9999 SCT045/// 10/04 Q0995 WNW (300°) 25.3mph 41.4mph 10°C 4°C
5/06/20 15:50 EGYM 051450Z AUTO 31012KT 9999 BKN050/// 12/05 Q0995 RERA NW (310°) 13.8mph 12°C 5°C
5/06/20 14:50 EGYM 051350Z AUTO 26014KT 9999 FEW035/// SCT046/// 13/05 Q0994 W (260°) 16.1mph 13°C 5°C
5/06/20 13:50 EGYM 051250Z AUTO 29007KT 9999 FEW060/// 12/08 Q0994 RERA WNW (290°) 8.1mph 12°C 8°C
5/06/20 12:50 EGYM 051150Z 30013KT 9999 -SHRA FEW024TCU 12/07 Q0994 TEMPO 7000 SHRA SCT024CB RMK BLU TEMPO WHT -SHRA WNW (300°) 15.0mph 12°C 7°C
5/06/20 12:26 EGYM 051126Z 29012KT 9999 VCSH FEW024TCU 12/07 Q0994 TEMPO 7000 SHRA SCT024CB RMK BLU TEMPO WHT VCSH WNW (290°) 13.8mph 12°C 7°C
5/06/20 11:50 EGYM 051050Z 30014KT 9999 FEW024TCU SCT070 11/08 Q0994 TEMPO 7000 SHRA SCT024CB RMK BLU TEMPO WHT WNW (300°) 16.1mph 11°C 8°C
5/06/20 11:21 EGYM 051021Z 29009KT 9999 FEW015 BKN032 10/08 Q0994 TEMPO 7000 SHRA SCT024 RMK BLU TEMPO WHT WNW (290°) 10.4mph 10°C 8°C
5/06/20 10:50 EGYM 050950Z 31012KT 9999 SCT015 BKN035 09/07 Q0994 TEMPO FEW018 RMK WHT TEMPO BLU NW (310°) 13.8mph 9°C 7°C
5/06/20 10:20 EGYM 050920Z 33009KT 9999 SCT015 BKN035 09/08 Q0994 RESHRA TEMPO FEW018 RMK WHT TEMPO BLU NNW (330°) 10.4mph 9°C 8°C
5/06/20 09:50 EGYM 050850Z 34010KT 9999 -SHRA SCT012 SCT018 BKN035 08/07 Q0993 BECMG SCT018 RMK GRN BECMG WHT -SHRA NNW (340°) 11.5mph 8°C 7°C
5/06/20 09:20 EGYM 050820Z 32012KT 7000 -SHRA SCT010 BKN015 08/08 Q0993 BECMG 9999 NSW SCT018 RMK GRN BECMG WHT -SHRA NW (320°) 13.8mph 8°C 8°C
5/06/20 08:50 EGYM 050750Z 33009KT 7000 -SHRA SCT009 BKN014 08/07 Q0993 BECMG 9999 NSW SCT018 RMK GRN BECMG WHT -SHRA NNW (330°) 10.4mph 8°C 7°C
5/06/20 08:21 EGYM 050721Z 33009KT 6000 -SHRA BKN010 BKN018 08/07 Q0993 TEMPO 9999 NSW SCT012 RMK GRN TEMPO GRN -SHRA NNW (330°) 10.4mph 8°C 7°C
5/06/20 07:50 EGYM 050650Z 33010KT 5000 SHRA BKN008 BKN020 09/08 Q0992 TEMPO 9999 NSW SCT012 RMK GRN TEMPO GRN SHRA NNW (330°) 11.5mph 9°C 8°C
5/06/20 07:20 EGYM 050620Z 29013KT 5000 SHRA SCT012 BKN020 09/08 Q0992 TEMPO 9999 NSW SCT012 RMK GRN TEMPO GRN SHRA WNW (290°) 15.0mph 9°C 8°C
5/06/20 06:50 EGYM 050550Z 27016KT 9999 SCT015 BKN020 10/07 Q0992 TEMPO 7000 SHRA SCT010 RMK WHT TEMPO GRN W (270°) 18.4mph 10°C 7°C
5/06/20 05:50 EGYM 050450Z 25012KT 9999 FEW020 BKN060 09/07 Q0992 BLU WSW (250°) 13.8mph 9°C 7°C
5/06/20 04:50 EGYM 050350Z 25010KT 9999 FEW017 BKN150 09/08 Q0993 BLU WSW (250°) 11.5mph 9°C 8°C
5/06/20 03:50 EGYM 050250Z AUTO 25011KT 9999 FEW046/// BKN140/// 10/09 Q0994 WSW (250°) 12.7mph 10°C 9°C
5/06/20 02:50 EGYM 050150Z 24011KT 9999 FEW007 BKN025 10/09 Q0995 BLU WSW (240°) 12.7mph 10°C 9°C
5/06/20 01:50 EGYM 050050Z 22009KT 9999 BKN045 10/09 Q0995 NOSIG RMK BLU BLU SW (220°) 10.4mph 10°C 9°C
5/06/20 01:20 EGYM 050020Z 23008KT CAVOK 10/09 Q0996 NOSIG RMK BLU BLU SW (230°) 9.2mph 10°C 9°C
5/06/20 00:50 EGYM 042350Z 22008KT CAVOK 10/09 Q0996 NOSIG RMK BLU BLU SW (220°) 9.2mph 10°C 9°C
5/06/20 00:20 EGYM 042320Z 21007KT 9999 -SHRA SCT050 BKN070 10/09 Q0997 NOSIG RMK BLU BLU -SHRA SSW (210°) 8.1mph 10°C 9°C
4/06/20 23:50 EGYM 042250Z 20006KT 9999 FEW035 BKN070 10/09 Q0997 NOSIG RMK BLU BLU SSW (200°) 6.9mph 10°C 9°C
4/06/20 23:20 EGYM 042220Z 22007KT CAVOK 10/09 Q0998 TEMPO 7000 SHRA SCT020TCU RMK BLU TEMPO WHT SW (220°) 8.1mph 10°C 9°C
4/06/20 22:50 EGYM 042150Z 23008KT 9999 -SHRA FEW020 BKN050 10/09 Q0998 TEMPO 7000 SHRA SCT020TCU RMK BLU TEMPO WHT -SHRA SW (230°) 9.2mph 10°C 9°C
4/06/20 22:14 EGYM 042114Z 22007KT 6000 SHRA SCT020 BKN080 11/09 Q0999 WHT TEMPO 9999 NSW NSW FEW020 SCT030 RMK WHT TEMPO BLU SHRA SW (220°) 8.1mph 11°C 9°C
4/06/20 21:50 EGYM 042050Z 21006KT 9999 -SHRA SCT050 BKN080 11/08 Q0999 BLU TEMPO 7000 SHRA BKN025TCU RMK BLU TEMPO WHT -SHRA SSW (210°) 6.9mph 11°C 8°C
4/06/20 21:19 EGYM 042019Z 21007KT 9999 FEW035 BKN090 11/08 Q0999 TEMPO 7000 SHRA BKN025TCU RMK BLU TEMPO WHT SSW (210°) 8.1mph 11°C 8°C
4/06/20 20:50 EGYM 041950Z 23009KT 9999 FEW035 BKN090 11/08 Q0999 TEMPO 7000 SHRA BKN025TCU RMK BLU TEMPO WHT SW (230°) 10.4mph 11°C 8°C
4/06/20 20:24 EGYM 041924Z 21006KT 9999 FEW035 BKN050 11/07 Q0999 TEMPO 7000 SHRA BKN025TCU RMK BLU TEMPO WHT SSW (210°) 6.9mph 11°C 7°C
4/06/20 19:50 EGYM 041850Z 21006KT 9999 FEW035 BKN050 12/06 Q0999 TEMPO 7000 SHRA BKN025TCU RMK BLU TEMPO WHT SSW (210°) 6.9mph 12°C 6°C
4/06/20 19:22 EGYM 041822Z 27004KT 9999 FEW035 BKN050 13/05 Q1000 TEMPO 7000 SHRA BKN025TCU RMK BLU TEMPO WHT W (270°) 4.6mph 13°C 5°C
4/06/20 18:50 EGYM 041750Z 28005KT 9999 FEW035 BKN050 13/05 Q1000 TEMPO 7000 SHRA BKN025TCU RMK BLU TEMPO WHT W (280°) 5.8mph 13°C 5°C
4/06/20 18:19 EGYM 041719Z 28007KT 9999 FEW035 BKN050 13/05 Q1000 TEMPO 7000 SHRA BKN030TCU RMK BLU TEMPO WHT W (280°) 8.1mph 13°C 5°C
4/06/20 17:50 EGYM 041650Z 27009KT 9999 FEW035 BKN050 14/06 Q1000 TEMPO 7000 SHRA BKN030TCU RMK BLU TEMPO WHT W (270°) 10.4mph 14°C 6°C
4/06/20 16:50 EGYM 041550Z 30008KT 9999 FEW030 BKN050 12/05 Q1000 BLU WNW (300°) 9.2mph 12°C 5°C
4/06/20 15:50 EGYM 041450Z 29009KT 9999 FEW024 OVC045 12/06 Q1001 RERA BLU WNW (290°) 10.4mph 12°C 6°C
4/06/20 14:50 EGYM 041350Z 32010KT 9999 -RA BKN032 11/08 Q1002 BLU -RA NW (320°) 11.5mph 11°C 8°C
4/06/20 13:50 EGYM 041250Z 32012KT 9999 FEW028 SCT040 BKN140 13/05 Q1001 BLU NW (320°) 13.8mph 13°C 5°C
4/06/20 12:50 EGYM 041150Z 32010KT 9999 SCT028 BKN140 13/05 Q1002 BLU NW (320°) 11.5mph 13°C 5°C
4/06/20 11:50 EGYM 041050Z 32011KT 9999 FEW022 BKN140 13/07 Q1002 BLU NW (320°) 12.7mph 13°C 7°C
4/06/20 10:50 EGYM 040950Z 32013KT 9999 FEW025 BKN040 BKN120 12/07 Q1003 BLU NW (320°) 15.0mph 12°C 7°C
4/06/20 09:50 EGYM 040850Z 32013KT 9999 FEW025 SCT040 BKN100 11/07 Q1003 BLU NW (320°) 15.0mph 11°C 7°C
4/06/20 08:50 EGYM 040750Z 34012KT 9999 FEW025 SCT050 BKN070 11/08 Q1003 BLU NNW (340°) 13.8mph 11°C 8°C
4/06/20 07:50 EGYM 040650Z 35010KT 9999 SCT015 BKN050 11/08 Q1003 WHT N (350°) 11.5mph 11°C 8°C
4/06/20 06:50 EGYM 040550Z 36012KT 8000 -RA SCT015 BKN040 10/08 Q1004 WHT -RA N (360°) 13.8mph 10°C 8°C
4/06/20 05:50 EGYM 040450Z 36010KT 9999 SCT015 BKN050 10/09 Q1004 WHT N (360°) 11.5mph 10°C 9°C
4/06/20 04:50 EGYM 040350Z 35010KT 7000 -RA SCT015 OVC030 10/10 Q1004 WHT -RA N (350°) 11.5mph 10°C 10°C
4/06/20 03:50 EGYM 040250Z 33007KT 9999 SCT015 OVC030 11/10 Q1004 WHT NNW (330°) 8.1mph 11°C 10°C
4/06/20 02:50 EGYM 040150Z 34008KT 9999 SCT015 OVC030 11/09 Q1005 WHT NNW (340°) 9.2mph 11°C 9°C
4/06/20 01:50 EGYM 040050Z 35010KT 9999 FEW014 OVC020 11/10 Q1006 NOSIG RMK WHT WHT N (350°) 11.5mph 11°C 10°C
4/06/20 01:20 EGYM 040020Z 35010KT 9999 FEW014 OVC020 11/10 Q1006 TEMPO SCT014 RMK WHT TEMPO GRN N (350°) 11.5mph 11°C 10°C
4/06/20 00:50 EGYM 032350Z 36010KT 9999 SCT010 OVC020 11/10 Q1006 TEMPO FEW010 SCT020 RMK GRN TEMPO WHT N (360°) 11.5mph 11°C 10°C
4/06/20 00:21 EGYM 032321Z 36014KT 4000 -RA SCT009 OVC015 11/10 Q1006 BECMG 6000 -RA SCT012 RMK GRN BECMG GRN -RA N (360°) 16.1mph 11°C 10°C
3/06/20 23:50 EGYM 032250Z 36014KT 4000 -RA SCT008 OVC015 11/10 Q1007 BECMG 6000 -RA SCT012 RMK GRN BECMG GRN -RA N (360°) 16.1mph 11°C 10°C
3/06/20 23:20 EGYM 032220Z 36012KT 4000 -RA BKN005 OVC007 11/10 Q1007 TEMPO 6000 -RA BKN007 RMK YLO1 TEMPO GRN -RA N (360°) 13.8mph 11°C 10°C
3/06/20 22:50 EGYM 032150Z 36011KT 4000 -RA BKN005 OVC007 11/10 Q1007 TEMPO 6000 -RA BKN007 RMK YLO1 TEMPO GRN -RA N (360°) 12.7mph 11°C 10°C
3/06/20 22:20 EGYM 032120Z 36014KT 4000 -RA FEW006 BKN007 OVC015 11/10 Q1008 TEMPO 6000 -RA SCT007 RMK GRN TEMPO GRN -RA N (360°) 16.1mph 11°C 10°C
3/06/20 21:50 EGYM 032050Z 36012KT 7000 -RA BKN008 OVC015 11/10 Q1008 NOSIG RMK GRN GRN -RA N (360°) 13.8mph 11°C 10°C
3/06/20 21:20 EGYM 032020Z 36012KT 7000 -RA BKN008 OVC015 12/10 Q1008 TEMPO 9999 NSW SCT010 RMK GRN TEMPO GRN -RA N (360°) 13.8mph 12°C 10°C
3/06/20 20:50 EGYM 031950Z 36014KT 9999 -RA BKN011 OVC020 12/10 Q1008 TEMPO 7000 -RA SCT012 RMK GRN TEMPO GRN -RA N (360°) 16.1mph 12°C 10°C
3/06/20 20:24 EGYM 031924Z 36014KT 9999 -RA BKN012 OVC020 12/10 Q1008 TEMPO 7000 -RA SCT012 RMK GRN TEMPO GRN -RA N (360°) 16.1mph 12°C 10°C
3/06/20 19:50 EGYM 031850Z 36014KT 9999 -RA BKN013 OVC025 13/10 Q1008 NOSIG RMK GRN GRN -RA N (360°) 16.1mph 13°C 10°C
3/06/20 19:20 EGYM 031820Z 36015KT 9999 -RA BKN015 OVC030 13/10 Q1008 BECMG 5000 RA SCT008 RMK WHT BECMG GRN -RA N (360°) 17.3mph 13°C 10°C
3/06/20 18:50 EGYM 031750Z 36016KT 9999 BKN018 OVC070 13/10 Q1008 BECMG 5000 RA SCT008 RMK WHT BECMG GRN N (360°) 18.4mph 13°C 10°C
3/06/20 18:20 EGYM 031720Z 36015KT 9999 SCT018 OVC070 14/10 Q1008 NOSIG RMK WHT WHT N (360°) 17.3mph 14°C 10°C
3/06/20 17:50 EGYM 031650Z 01012KT 9999 SCT018 OVC070 14/10 Q1008 NOSIG RMK WHT WHT N (10°) 13.8mph 14°C 10°C
3/06/20 16:50 EGYM 031550Z 01014KT 9999 FEW020 OVC070 14/10 Q1008 NOSIG RMK BLU BLU N (10°) 16.1mph 14°C 10°C
3/06/20 15:50 EGYM 031450Z 01014KT 9999 FEW020 OVC070 14/10 Q1008 BLU N (10°) 16.1mph 14°C 10°C
3/06/20 14:50 EGYM 031350Z 01014KT 9999 FEW020 BKN070 15/10 Q1008 BLU N (10°) 16.1mph 15°C 10°C
3/06/20 13:50 EGYM 031250Z 02014KT 9999 FEW020 BKN070 15/10 Q1008 BLU NNE (20°) 16.1mph 15°C 10°C
3/06/20 12:50 EGYM 031150Z 01010KT 9999 FEW024 BKN070 15/10 Q1009 BLU N (10°) 11.5mph 15°C 10°C
3/06/20 11:50 EGYM 031050Z 03012KT 9999 FEW024 BKN070 16/09 Q1009 BLU NNE (30°) 13.8mph 16°C 9°C
3/06/20 09:50 EGYM 030850Z 36012KT CAVOK 15/10 Q1009 BLU N (360°) 13.8mph 15°C 10°C